Time,TemperatureF,DewpointF,PressureIn,WindDirection,WindDirectionDegrees,WindSpeedMPH,WindSpeedGustMPH,Humidity,HourlyPrecipIn,Conditions,Clouds,dailyrainin,SoftwareType,DateUTC
2013-01-29 00:06:00,48.5,48.0,30.27,ENE,70,0.0,0.0,97,0.00,,,0.09,weatherlink.com 1.10,2013-01-29 05:06:00,
2013-01-29 00:21:00,48.5,48.0,30.26,ENE,74,0.0,1.0,98,0.00,,,0.09,weatherlink.com 1.10,2013-01-29 05:21:00,
2013-01-29 00:36:00,48.3,48.0,30.27,South,171,0.0,2.0,97,0.00,,,0.09,weatherlink.com 1.10,2013-01-29 05:36:00,
2013-01-29 00:51:00,48.3,48.0,30.26,South,170,0.0,1.0,98,0.00,,,0.09,weatherlink.com 1.10,2013-01-29 05:51:00,
2013-01-29 01:06:00,48.3,48.0,30.26,South,170,0.0,0.0,98,0.02,,,0.11,weatherlink.com 1.10,2013-01-29 06:06:00,
2013-01-29 01:21:00,48.4,48.0,30.26,South,171,0.0,0.0,98,0.04,,,0.13,weatherlink.com 1.10,2013-01-29 06:21:00,
2013-01-29 01:36:00,48.5,48.0,30.26,South,169,0.0,1.0,98,0.05,,,0.14,weatherlink.com 1.10,2013-01-29 06:36:00,
2013-01-29 01:52:00,48.5,48.0,30.25,South,169,0.0,0.0,98,0.05,,,0.14,weatherlink.com 1.10,2013-01-29 06:52:00,
2013-01-29 02:06:00,48.2,47.0,30.25,South,169,0.0,1.0,97,0.03,,,0.14,weatherlink.com 1.10,2013-01-29 07:06:00,
2013-01-29 02:22:00,48.0,48.0,30.25,South,169,0.0,1.0,98,0.00,,,0.14,weatherlink.com 1.10,2013-01-29 07:22:00,
2013-01-29 02:37:00,48.1,48.0,30.25,SE,136,0.0,1.0,98,0.00,,,0.14,weatherlink.com 1.10,2013-01-29 07:37:00,
2013-01-29 02:52:00,48.2,48.0,30.25,SE,136,0.0,1.0,98,0.01,,,0.15,weatherlink.com 1.10,2013-01-29 07:52:00,
2013-01-29 03:07:00,48.3,48.0,30.25,SE,136,0.0,0.0,98,0.01,,,0.15,weatherlink.com 1.10,2013-01-29 08:07:00,
2013-01-29 03:22:00,48.1,48.0,30.24,SE,136,0.0,1.0,98,0.02,,,0.00,weatherlink.com 1.10,2013-01-29 08:22:00,
2013-01-29 03:37:00,47.8,47.0,30.23,SE,136,0.0,0.0,98,0.02,,,0.00,weatherlink.com 1.10,2013-01-29 08:37:00,
2013-01-29 03:52:00,47.6,47.0,30.23,SE,136,0.0,1.0,98,0.01,,,0.00,weatherlink.com 1.10,2013-01-29 08:52:00,
2013-01-29 04:07:00,47.7,47.0,30.23,SE,137,0.0,0.0,98,0.01,,,0.00,weatherlink.com 1.10,2013-01-29 09:07:00,
2013-01-29 04:22:00,47.5,47.0,30.23,SE,136,0.0,0.0,98,0.00,,,0.00,weatherlink.com 1.10,2013-01-29 09:22:00,
2013-01-29 04:37:00,47.4,47.0,30.22,SE,136,0.0,0.0,98,0.00,,,0.00,weatherlink.com 1.10,2013-01-29 09:37:00,
2013-01-29 04:52:00,47.3,47.0,30.22,SE,136,0.0,0.0,98,0.00,,,0.00,weatherlink.com 1.10,2013-01-29 09:52:00,
2013-01-29 05:07:00,47.0,47.0,30.22,SE,136,0.0,0.0,98,0.00,,,0.00,weatherlink.com 1.10,2013-01-29 10:07:00,
2013-01-29 05:22:00,46.8,46.0,30.22,SE,137,0.0,1.0,98,0.00,,,0.00,weatherlink.com 1.10,2013-01-29 10:22:00,
2013-01-29 05:37:00,46.8,46.0,30.21,SE,136,0.0,0.0,98,0.00,,,0.00,weatherlink.com 1.10,2013-01-29 10:37:00,
2013-01-29 05:52:00,47.0,47.0,30.21,NNE,23,0.0,0.0,98,0.00,,,0.00,weatherlink.com 1.10,2013-01-29 10:52:00,
2013-01-29 06:07:00,46.8,46.0,30.21,NNE,25,0.0,1.0,98,0.00,,,0.00,weatherlink.com 1.10,2013-01-29 11:07:00,
2013-01-29 06:22:00,45.9,45.0,30.21,NNE,25,0.0,1.0,98,0.00,,,0.00,weatherlink.com 1.10,2013-01-29 11:22:00,
2013-01-29 06:37:00,45.8,45.0,30.21,NNE,25,0.0,1.0,98,0.00,,,0.00,weatherlink.com 1.10,2013-01-29 11:37:00,
2013-01-29 06:52:00,45.5,45.0,30.20,ENE,75,0.0,1.0,98,0.00,,,0.00,weatherlink.com 1.10,2013-01-29 11:52:00,
2013-01-29 07:07:00,45.1,45.0,30.21,ENE,75,0.0,0.0,98,0.00,,,0.00,weatherlink.com 1.10,2013-01-29 12:07:00,
2013-01-29 07:22:00,44.9,44.0,30.21,NE,47,1.0,1.0,98,0.00,,,0.00,weatherlink.com 1.10,2013-01-29 12:22:00,
2013-01-29 07:37:00,45.4,45.0,30.21,NNE,29,0.0,2.0,98,0.00,,,0.00,weatherlink.com 1.10,2013-01-29 12:37:00,
2013-01-29 07:52:00,44.9,44.0,30.21,NE,34,2.0,2.0,98,0.00,,,0.00,weatherlink.com 1.10,2013-01-29 12:52:00,
2013-01-29 08:08:00,44.2,44.0,30.21,ESE,106,0.0,1.0,98,0.00,,,0.00,weatherlink.com 1.10,2013-01-29 13:08:00,
2013-01-29 08:22:00,44.0,44.0,30.21,SE,131,0.0,1.0,98,0.00,,,0.00,weatherlink.com 1.10,2013-01-29 13:22:00,
2013-01-29 08:37:00,44.8,44.0,30.22,East,93,1.0,1.0,98,0.00,,,0.00,weatherlink.com 1.10,2013-01-29 13:37:00,
2013-01-29 08:52:00,46.5,46.0,30.22,ENE,66,0.0,1.0,99,0.00,,,0.00,weatherlink.com 1.10,2013-01-29 13:52:00,
2013-01-29 09:08:00,47.5,47.0,30.22,SSE,165,0.0,1.0,99,0.00,,,0.00,weatherlink.com 1.10,2013-01-29 14:08:00,
2013-01-29 09:22:00,49.5,49.0,30.21,East,86,1.0,1.0,99,0.00,,,0.00,weatherlink.com 1.10,2013-01-29 14:22:00,
2013-01-29 09:38:00,51.5,51.0,30.21,SSE,150,0.0,1.0,99,0.00,,,0.00,weatherlink.com 1.10,2013-01-29 14:38:00,
2013-01-29 09:53:00,53.5,53.0,30.20,SSE,153,0.0,1.0,99,0.00,,,0.00,weatherlink.com 1.10,2013-01-29 14:53:00,
2013-01-29 10:07:00,53.9,54.0,30.19,NE,46,2.0,3.0,99,0.00,,,0.00,weatherlink.com 1.10,2013-01-29 15:07:00,
2013-01-29 10:23:00,55.2,53.0,30.19,ENE,75,1.0,2.0,92,0.00,,,0.00,weatherlink.com 1.10,2013-01-29 15:23:00,
2013-01-29 10:37:00,55.5,53.0,30.19,NE,43,0.0,2.0,91,0.00,,,0.00,weatherlink.com 1.10,2013-01-29 15:37:00,
2013-01-29 11:08:00,59.5,54.0,30.19,SSW,207,2.0,6.0,82,0.00,,,0.00,weatherlink.com 1.10,2013-01-29 16:08:00,
2013-01-29 11:23:00,60.9,55.0,30.18,South,188,4.0,7.0,80,0.00,,,0.00,weatherlink.com 1.10,2013-01-29 16:23:00,
2013-01-29 11:38:00,62.6,55.0,30.17,SSW,208,6.0,8.0,77,0.00,,,0.00,weatherlink.com 1.10,2013-01-29 16:38:00,
2013-01-29 11:53:00,62.7,55.0,30.17,SSE,160,4.0,6.0,75,0.00,,,0.00,weatherlink.com 1.10,2013-01-29 16:53:00,
2013-01-29 12:08:00,61.9,54.0,30.16,South,190,2.0,10.0,76,0.00,,,0.00,weatherlink.com 1.10,2013-01-29 17:08:00,
2013-01-29 12:23:00,61.6,54.0,30.15,South,176,9.0,11.0,76,0.00,,,0.00,weatherlink.com 1.10,2013-01-29 17:23:00,
2013-01-29 12:39:00,61.4,54.0,30.14,SE,141,6.0,10.0,77,0.00,,,0.00,weatherlink.com 1.10,2013-01-29 17:39:00,
2013-01-29 12:53:00,61.8,54.0,30.13,SSE,155,6.0,9.0,75,0.00,,,0.00,weatherlink.com 1.10,2013-01-29 17:53:00,
2013-01-29 13:08:00,62.3,54.0,30.12,SSW,205,4.0,11.0,74,0.00,,,0.00,weatherlink.com 1.10,2013-01-29 18:08:00,
2013-01-29 13:23:00,62.7,54.0,30.12,SSW,203,8.0,8.0,74,0.00,,,0.00,weatherlink.com 1.10,2013-01-29 18:23:00,
2013-01-29 13:38:00,63.0,54.0,30.11,South,179,9.0,11.0,73,0.00,,,0.00,weatherlink.com 1.10,2013-01-29 18:38:00,
2013-01-29 13:54:00,63.2,54.0,30.10,SSW,201,13.0,17.0,71,0.00,,,0.00,weatherlink.com 1.10,2013-01-29 18:54:00,
2013-01-29 14:09:00,64.0,54.0,30.10,South,169,5.0,13.0,70,0.00,,,0.00,weatherlink.com 1.10,2013-01-29 19:09:00,
2013-01-29 14:23:00,64.8,54.0,30.09,SSE,152,7.0,13.0,69,0.00,,,0.00,weatherlink.com 1.10,2013-01-29 19:23:00,
2013-01-29 14:39:00,66.5,56.0,30.08,South,174,3.0,7.0,68,0.00,,,0.00,weatherlink.com 1.10,2013-01-29 19:39:00,
2013-01-29 14:53:00,66.7,54.0,30.08,WSW,250,4.0,16.0,65,0.00,,,0.00,weatherlink.com 1.10,2013-01-29 19:53:00,
2013-01-29 15:09:00,66.7,54.0,30.07,SW,235,3.0,14.0,65,0.00,,,0.00,weatherlink.com 1.10,2013-01-29 20:09:00,
2013-01-29 15:24:00,67.0,54.0,30.07,SSW,198,4.0,8.0,64,0.00,,,0.00,weatherlink.com 1.10,2013-01-29 20:24:00,
2013-01-29 15:39:00,66.5,54.0,30.07,SSW,195,2.0,17.0,65,0.00,,,0.00,weatherlink.com 1.10,2013-01-29 20:39:00,
2013-01-29 15:54:00,65.7,54.0,30.07,West,269,3.0,7.0,67,0.00,,,0.00,weatherlink.com 1.10,2013-01-29 20:54:00,
2013-01-29 16:09:00,65.1,55.0,30.06,SSE,162,5.0,9.0,69,0.00,,,0.00,weatherlink.com 1.10,2013-01-29 21:09:00,
2013-01-29 16:24:00,65.2,54.0,30.05,West,269,1.0,13.0,68,0.00,,,0.00,weatherlink.com 1.10,2013-01-29 21:24:00,
2013-01-29 16:39:00,64.9,54.0,30.04,SSE,158,5.0,6.0,68,0.00,,,0.00,weatherlink.com 1.10,2013-01-29 21:39:00,
2013-01-29 16:54:00,64.4,54.0,30.03,South,172,2.0,7.0,69,0.00,,,0.00,weatherlink.com 1.10,2013-01-29 21:54:00,
2013-01-29 17:09:00,64.3,54.0,30.03,South,176,1.0,5.0,69,0.00,,,0.00,weatherlink.com 1.10,2013-01-29 22:09:00,
2013-01-29 17:24:00,63.9,53.0,30.02,South,178,1.0,4.0,68,0.00,,,0.00,weatherlink.com 1.10,2013-01-29 22:24:00,
2013-01-29 17:39:00,63.3,53.0,30.01,South,179,1.0,3.0,68,0.00,,,0.00,weatherlink.com 1.10,2013-01-29 22:39:00,
2013-01-29 17:54:00,62.3,52.0,30.01,SSE,152,0.0,6.0,69,0.00,,,0.00,weatherlink.com 1.10,2013-01-29 22:54:00,
2013-01-29 18:09:00,61.6,52.0,30.01,SSE,149,0.0,4.0,70,0.00,,,0.00,weatherlink.com 1.10,2013-01-29 23:09:00,
2013-01-29 18:24:00,60.2,52.0,30.00,SSE,149,0.0,1.0,73,0.00,,,0.00,weatherlink.com 1.10,2013-01-29 23:24:00,
2013-01-29 18:39:00,59.5,51.0,30.00,South,188,0.0,1.0,73,0.00,,,0.00,weatherlink.com 1.10,2013-01-29 23:39:00,
2013-01-29 18:54:00,59.3,51.0,30.00,SSE,149,0.0,1.0,73,0.00,,,0.00,weatherlink.com 1.10,2013-01-29 23:54:00,
2013-01-29 19:09:00,59.1,50.0,30.00,SSE,149,0.0,1.0,73,0.00,,,0.00,weatherlink.com 1.10,2013-01-30 00:09:00,
2013-01-29 19:24:00,58.2,50.0,30.00,NNE,18,0.0,1.0,75,0.00,,,0.00,weatherlink.com 1.10,2013-01-30 00:24:00,
2013-01-29 19:54:00,56.7,50.0,30.00,SE,125,0.0,1.0,77,0.00,,,0.00,weatherlink.com 1.10,2013-01-30 00:54:00,
2013-01-29 20:09:00,55.6,50.0,30.00,SE,141,0.0,1.0,80,0.00,,,0.00,weatherlink.com 1.10,2013-01-30 01:09:00,
2013-01-29 20:24:00,55.1,49.0,30.01,SE,141,0.0,1.0,81,0.00,,,0.00,weatherlink.com 1.10,2013-01-30 01:24:00,
2013-01-29 20:39:00,55.3,50.0,30.01,SE,140,0.0,1.0,81,0.00,,,0.00,weatherlink.com 1.10,2013-01-30 01:39:00,
2013-01-29 20:54:00,55.7,49.0,30.00,NE,38,0.0,1.0,79,0.00,,,0.00,weatherlink.com 1.10,2013-01-30 01:54:00,
2013-01-29 21:09:00,56.3,50.0,29.99,SE,136,0.0,1.0,78,0.00,,,0.00,weatherlink.com 1.10,2013-01-30 02:09:00,
2013-01-29 21:24:00,55.4,49.0,29.98,SW,232,0.0,3.0,79,0.00,,,0.00,weatherlink.com 1.10,2013-01-30 02:24:00,
2013-01-29 21:39:00,55.3,49.0,29.97,North,356,1.0,2.0,79,0.00,,,0.00,weatherlink.com 1.10,2013-01-30 02:39:00,
2013-01-29 21:54:00,56.1,49.0,29.96,NE,37,2.0,2.0,78,0.00,,,0.00,weatherlink.com 1.10,2013-01-30 02:54:00,
2013-01-29 22:09:00,57.0,50.0,29.96,ENE,70,0.0,1.0,76,0.00,,,0.00,weatherlink.com 1.10,2013-01-30 03:09:00,
2013-01-29 22:25:00,56.1,49.0,29.96,SSE,150,0.0,1.0,78,0.00,,,0.00,weatherlink.com 1.10,2013-01-30 03:25:00,
2013-01-29 22:39:00,57.3,51.0,29.95,SE,144,1.0,5.0,78,0.00,,,0.00,weatherlink.com 1.10,2013-01-30 03:39:00,
2013-01-29 22:55:00,58.6,51.0,29.94,SSE,156,1.0,5.0,77,0.00,,,0.00,weatherlink.com 1.10,2013-01-30 03:55:00,
2013-01-29 23:09:00,59.0,51.0,29.94,SSW,212,0.0,5.0,76,0.00,,,0.00,weatherlink.com 1.10,2013-01-30 04:09:00,
2013-01-29 23:24:00,59.1,52.0,29.92,SSE,150,3.0,6.0,77,0.00,,,0.00,weatherlink.com 1.10,2013-01-30 04:24:00,
2013-01-29 23:40:00,60.3,53.0,29.92,SSE,155,8.0,14.0,76,0.00,,,0.00,weatherlink.com 1.10,2013-01-30 04:40:00,
2013-01-29 23:55:00,61.2,53.0,29.91,SSE,167,4.0,13.0,75,0.00,,,0.00,weatherlink.com 1.10,2013-01-30 04:55:00,